Time;durP1;ratioP1;P1;durP2;ratioP2;P2;SDS_P1;SDS_P2;PMS_P1;PMS_P2;Temp;Humidity;BMP_temperature;BMP_pressure;BME280_temperature;BME280_humidity;BME280_pressure;Samples;Min_cycle;Max_cycle;Signal;HPM_P1;HPM_P2
2021/06/24 00:01:57;;;;;;;10.30;9.30;;;;;;;11.96;72.64;101080.72;6134106;23;20024;-79
2021/06/24 00:04:23;;;;;;;10.60;9.10;;;;;;;11.94;72.53;101080.97;6143875;23;20006;-78
2021/06/24 00:06:48;;;;;;;9.07;8.35;;;;;;;11.87;72.52;101083.91;6112127;23;20032;-77
2021/06/24 00:09:14;;;;;;;9.63;8.70;;;;;;;11.84;72.45;101083.59;6134884;23;20012;-77
2021/06/24 00:11:39;;;;;;;16.13;8.85;;;;;;;11.82;73.08;101085.75;6107907;23;20351;-76
2021/06/24 00:14:05;;;;;;;18.25;9.50;;;;;;;11.78;73.44;101090.09;6106650;23;20005;-77
2021/06/24 00:16:30;;;;;;;17.75;9.95;;;;;;;11.73;73.76;101087.31;6134550;23;20012;-77
2021/06/24 00:18:56;;;;;;;11.63;9.05;;;;;;;11.70;73.64;101077.69;6135512;23;20010;-77
2021/06/24 00:21:22;;;;;;;8.98;8.30;;;;;;;11.72;73.83;101086.47;6106367;23;20073;-77
2021/06/24 00:23:47;;;;;;;13.55;9.02;;;;;;;11.67;73.94;101073.56;6081111;23;20136;-76
2021/06/24 00:26:13;;;;;;;10.27;9.27;;;;;;;11.70;74.01;101075.78;6106021;23;20025;-75
2021/06/24 00:28:38;;;;;;;10.38;9.15;;;;;;;11.75;73.75;101075.00;6127088;23;20038;-76
2021/06/24 00:31:04;;;;;;;16.10;10.32;;;;;;;11.75;74.22;101069.53;6131675;23;20012;-79
2021/06/24 00:33:30;;;;;;;10.45;9.55;;;;;;;11.68;74.35;101069.75;6109152;23;20013;-76
2021/06/24 00:35:56;;;;;;;10.30;8.93;;;;;;;11.75;74.10;101079.66;6107145;23;20439;-78
2021/06/24 00:38:22;;;;;;;9.60;8.80;;;;;;;11.67;74.05;101073.56;6106092;23;20013;-80
2021/06/24 00:40:47;;;;;;;7.88;7.18;;;;;;;11.64;73.99;101074.06;6108916;23;20066;-80
2021/06/24 00:43:15;;;;;;;9.38;8.50;;;;;;;11.66;74.02;101077.38;6083128;23;20125;-79
2021/06/24 00:45:42;;;;;;;9.10;8.18;;;;;;;11.58;74.52;101068.78;6133670;23;20010;-79
2021/06/24 00:48:08;;;;;;;8.77;8.07;;;;;;;11.63;74.12;101083.38;6130511;23;20026;-78
2021/06/24 00:50:35;;;;;;;9.73;8.85;;;;;;;11.58;74.38;101075.09;6106128;23;20002;-78
2021/06/24 00:53:00;;;;;;;8.02;7.53;;;;;;;11.51;74.26;101061.59;6110170;23;20014;-77
2021/06/24 00:55:40;;;;;;;7.53;6.57;;;;;;;11.53;74.18;101072.28;6081842;23;20013;-77
2021/06/24 00:58:13;;;;;;;7.18;6.57;;;;;;;11.56;74.41;101077.25;6113131;23;20010;-77
2021/06/24 01:00:40;;;;;;;7.10;6.55;;;;;;;11.53;74.12;101075.03;6131650;23;20278;-78
2021/06/24 01:03:08;;;;;;;7.25;6.68;;;;;;;11.49;73.48;101076.63;6134210;23;20310;-79
2021/06/24 01:05:36;;;;;;;7.93;7.22;;;;;;;11.45;73.56;101070.84;6108229;23;20010;-78
2021/06/24 01:08:04;;;;;;;8.98;6.55;;;;;;;11.38;73.96;101070.22;6145171;23;20010;-78
2021/06/24 01:10:29;;;;;;;6.22;5.75;;;;;;;11.38;73.84;101074.88;6144007;23;20013;-76
2021/06/24 01:12:55;;;;;;;6.55;6.15;;;;;;;11.32;74.03;101077.53;6144864;23;20018;-76
2021/06/24 01:15:21;;;;;;;7.78;7.07;;;;;;;11.30;74.01;101068.75;6098337;23;20020;-75
2021/06/24 01:17:46;;;;;;;7.28;6.68;;;;;;;11.29;73.81;101078.03;6148097;23;20017;-75
2021/06/24 01:20:12;;;;;;;8.90;6.78;;;;;;;11.22;74.52;101063.72;6142760;23;20500;-76
2021/06/24 01:22:38;;;;;;;9.63;7.03;;;;;;;11.21;74.38;101067.53;6109905;23;20313;-76
2021/06/24 01:25:04;;;;;;;7.53;6.95;;;;;;;11.17;74.20;101071.88;6108446;23;20010;-76
2021/06/24 01:27:29;;;;;;;7.85;7.20;;;;;;;11.13;75.56;101070.72;6108129;23;20010;-75
2021/06/24 01:29:57;;;;;;;7.32;6.50;;;;;;;11.07;75.97;101079.94;6084587;23;20051;-75
2021/06/24 01:32:23;;;;;;;9.38;7.95;;;;;;;10.99;75.98;101073.84;6103066;23;20463;-74
2021/06/24 01:34:48;;;;;;;7.32;6.72;;;;;;;10.93;75.67;101069.34;6077799;23;20052;-73
2021/06/24 01:37:16;;;;;;;7.63;6.88;;;;;;;10.90;76.54;101080.00;6130147;23;20006;-75
2021/06/24 01:39:42;;;;;;;7.93;6.97;;;;;;;10.87;76.34;101075.03;6105899;23;20009;-74
2021/06/24 01:42:13;;;;;;;7.10;6.47;;;;;;;10.80;76.55;101067.81;6104570;23;20062;-73
2021/06/24 01:44:38;;;;;;;5.97;5.57;;;;;;;10.81;76.62;101069.47;6125807;23;19998;-73
2021/06/24 01:47:04;;;;;;;6.32;5.95;;;;;;;10.78;77.20;101066.44;6081538;23;20014;-73
2021/06/24 01:49:30;;;;;;;8.90;7.55;;;;;;;10.76;77.41;101074.03;6102051;23;20073;-77
2021/06/24 01:51:57;;;;;;;6.90;6.32;;;;;;;10.72;77.55;101067.41;6134358;23;19994;-78
2021/06/24 01:54:25;;;;;;;6.60;6.10;;;;;;;10.73;77.35;101069.06;6111334;23;20034;-77
2021/06/24 01:56:53;;;;;;;5.53;5.22;;;;;;;10.69;77.03;101056.97;6106584;23;20014;-77
2021/06/24 01:59:19;;;;;;;7.35;6.78;;;;;;;10.72;77.74;101061.94;6111226;23;20336;-77
2021/06/24 02:01:48;;;;;;;6.13;5.82;;;;;;;10.68;77.39;101069.03;6083472;23;20049;-77
2021/06/24 02:04:32;;;;;;;6.22;5.78;;;;;;;10.72;77.09;101072.88;6109871;23;20009;-81
2021/06/24 02:07:01;;;;;;;7.32;6.40;;;;;;;10.63;77.07;101061.53;6132500;23;20041;-79
2021/06/24 02:09:36;;;;;;;7.15;6.07;;;;;;;10.67;77.81;101062.69;6107429;23;20017;-78
2021/06/24 02:12:25;;;;;;;6.10;5.50;;;;;;;10.71;77.16;101072.06;6086397;23;20433;-76
2021/06/24 02:14:51;;;;;;;7.00;6.50;;;;;;;10.57;77.12;101060.66;6111995;23;20013;-77
2021/06/24 02:17:17;;;;;;;6.88;6.28;;;;;;;10.63;77.71;101080.69;6111709;23;20425;-77
2021/06/24 02:19:44;;;;;;;5.78;5.47;;;;;;;10.64;77.36;101077.72;6083891;23;20029;-77
2021/06/24 02:22:13;;;;;;;4.82;4.43;;;;;;;10.59;78.35;101063.16;6134081;23;20357;-78
2021/06/24 02:24:38;;;;;;;5.43;5.10;;;;;;;10.63;77.72;101076.06;6060381;23;20017;-77
2021/06/24 02:27:04;;;;;;;5.40;5.00;;;;;;;10.76;77.55;101079.50;6132678;23;20006;-77
2021/06/24 02:29:32;;;;;;;6.00;5.45;;;;;;;10.84;77.31;101081.81;6110444;23;20016;-80
2021/06/24 02:31:58;;;;;;;5.55;5.25;;;;;;;10.89;77.68;101065.47;6059983;23;19998;-78
2021/06/24 02:34:24;;;;;;;7.00;6.30;;;;;;;10.96;78.12;101068.03;6111747;23;20012;-80
2021/06/24 02:36:50;;;;;;;5.53;5.07;;;;;;;11.03;77.78;101065.13;6086340;23;20090;-80
2021/06/24 02:39:15;;;;;;;5.05;4.75;;;;;;;11.06;77.37;101053.66;6111697;23;20349;-79
2021/06/24 02:41:43;;;;;;;4.60;4.30;;;;;;;11.10;77.38;101052.91;6139112;23;20017;-80
2021/06/24 02:44:12;;;;;;;4.93;4.53;;;;;;;11.17;76.65;101055.47;6109806;23;20741;-78
2021/06/24 02:46:37;;;;;;;4.40;4.20;;;;;;;11.27;76.87;101058.31;6137332;23;20368;-77
2021/06/24 02:49:03;;;;;;;4.28;3.90;;;;;;;11.28;76.61;101059.97;6137249;23;20030;-80
2021/06/24 02:51:28;;;;;;;4.00;3.80;;;;;;;11.32;76.62;101061.09;6137868;23;20437;-76
2021/06/24 02:53:53;;;;;;;5.22;4.38;;;;;;;11.33;76.61;101062.78;6111748;23;20060;-78
2021/06/24 02:56:22;;;;;;;3.25;3.15;;;;;;;11.38;76.27;101058.44;6086590;23;20029;-75
2021/06/24 02:58:48;;;;;;;3.03;2.92;;;;;;;11.41;76.13;101052.44;6131870;23;20033;-76
2021/06/24 03:01:14;;;;;;;3.28;3.17;;;;;;;11.43;76.15;101051.09;6107458;23;20345;-74
2021/06/24 03:03:39;;;;;;;3.42;3.13;;;;;;;11.43;75.61;101047.53;6131634;23;20040;-73
2021/06/24 03:06:06;;;;;;;3.30;3.20;;;;;;;11.53;75.72;101050.38;6109236;23;20006;-75
2021/06/24 03:08:31;;;;;;;2.60;2.50;;;;;;;11.51;75.69;101030.66;6109161;23;20381;-75
2021/06/24 03:10:56;;;;;;;2.03;1.92;;;;;;;11.61;75.38;101047.19;6132843;23;20010;-75
2021/06/24 03:13:22;;;;;;;1.75;1.67;;;;;;;11.68;75.36;101042.34;6107728;23;20011;-75
2021/06/24 03:15:47;;;;;;;1.50;1.50;;;;;;;11.73;75.31;101040.75;6131341;23;20009;-76
2021/06/24 03:18:13;;;;;;;1.02;1.02;;;;;;;11.84;75.11;101045.22;6103359;23;20062;-76
2021/06/24 03:20:38;;;;;;;1.98;1.88;;;;;;;11.90;74.62;101054.31;6133290;23;20010;-76
2021/06/24 03:23:04;;;;;;;2.50;2.40;;;;;;;11.93;74.76;101054.66;6135731;23;20016;-77
2021/06/24 03:25:29;;;;;;;2.65;2.55;;;;;;;11.92;74.38;101042.03;6133006;23;20034;-77
2021/06/24 03:27:55;;;;;;;2.72;2.63;;;;;;;12.08;75.00;101051.25;6133224;23;20062;-76
2021/06/24 03:30:22;;;;;;;3.65;3.45;;;;;;;12.09;74.71;101041.09;6082908;23;20010;-76
2021/06/24 03:32:49;;;;;;;4.47;4.25;;;;;;;12.21;74.63;101055.47;6105479;23;20009;-77
2021/06/24 03:35:15;;;;;;;4.90;4.57;;;;;;;12.25;74.18;101053.84;6106402;23;20340;-76
2021/06/24 03:37:41;;;;;;;4.30;4.10;;;;;;;12.28;74.66;101045.09;6108003;23;20010;-76
2021/06/24 03:40:09;;;;;;;4.70;4.50;;;;;;;12.36;73.94;101039.13;6105296;23;20325;-72
2021/06/24 03:42:35;;;;;;;5.60;5.30;;;;;;;12.45;74.33;101049.59;6127089;23;20009;-74
2021/06/24 03:45:00;;;;;;;4.63;4.32;;;;;;;12.50;74.42;101052.38;6134479;23;20026;-75
2021/06/24 03:47:26;;;;;;;3.88;3.60;;;;;;;12.56;74.00;101056.81;6134309;23;20720;-76
2021/06/24 03:49:51;;;;;;;2.75;2.25;;;;;;;12.64;74.09;101058.25;6104907;23;20025;-76
2021/06/24 03:52:17;;;;;;;1.90;1.80;;;;;;;12.70;74.00;101058.03;6136095;23;20081;-80
2021/06/24 03:54:42;;;;;;;1.50;1.40;;;;;;;12.77;73.69;101055.03;6133835;23;20124;-83
2021/06/24 03:57:23;;;;;;;1.27;1.27;;;;;;;12.87;73.35;101062.50;6087971;23;20187;-83
2021/06/24 03:59:49;;;;;;;1.10;1.10;;;;;;;12.84;73.43;101043.81;6107748;23;20449;-81
2021/06/24 04:02:17;;;;;;;2.40;1.33;;;;;;;12.98;73.17;101053.22;6087122;23;20045;-81
2021/06/24 04:04:42;;;;;;;0.50;0.50;;;;;;;13.14;73.20;101059.63;6107898;23;20016;-82
2021/06/24 04:07:07;;;;;;;0.85;0.85;;;;;;;13.22;73.04;101052.78;6137875;23;20006;-79
2021/06/24 04:12:36;;;;;;;2.28;2.17;;;;;;;13.26;72.73;101031.94;6070479;23;20025;-77
2021/06/24 04:15:05;;;;;;;3.72;3.53;;;;;;;13.32;72.61;101025.34;6108811;23;20096;-79
2021/06/24 04:20:45;;;;;;;;;;;;;;;;;;;;;
2021/06/24 04:23:36;;;;;;;;;;;;;;;;;;;;;
2021/06/24 04:26:07;;;;;;;4.32;4.13;;;;;;;14.00;72.78;101054.63;6134186;23;20033;-77
2021/06/24 04:28:39;;;;;;;6.60;6.00;;;;;;;13.97;73.03;101027.69;6129966;23;19997;-77
2021/06/24 04:31:39;;;;;;;6.43;5.93;;;;;;;14.26;72.27;101054.66;6132160;23;20002;-82
2021/06/24 04:34:06;;;;;;;7.55;6.85;;;;;;;14.31;72.85;101054.66;6134672;23;20025;-77
2021/06/24 04:36:51;;;;;;;7.80;7.10;;;;;;;14.41;72.80;101054.66;6108113;23;20032;-79
2021/06/24 04:39:16;;;;;;;7.60;6.90;;;;;;;14.42;72.89;101056.28;6131076;23;20005;-78
2021/06/24 04:41:42;;;;;;;7.18;6.63;;;;;;;14.41;72.57;101051.91;6109488;23;20329;-78
2021/06/24 04:44:07;;;;;;;5.32;5.13;;;;;;;14.49;72.13;101058.78;6107811;23;20017;-78
2021/06/24 04:50:30;;;;;;;5.55;5.18;;;;;;;14.65;71.95;101045.84;6091742;23;20048;-77
2021/06/24 04:52:55;;;;;;;4.55;4.25;;;;;;;14.63;72.54;101048.03;6133095;23;20041;-76
2021/06/24 04:55:22;;;;;;;6.10;5.18;;;;;;;14.62;71.92;101038.97;6135314;23;20010;-77
2021/06/24 04:57:48;;;;;;;4.00;3.80;;;;;;;14.74;72.11;101048.84;6086290;23;20038;-78
2021/06/24 05:00:38;;;;;;;5.35;5.05;;;;;;;14.82;71.99;101051.03;6132836;23;20021;-77
2021/06/24 05:03:05;;;;;;;6.82;6.47;;;;;;;14.78;71.58;101044.44;6106405;23;20378;-76
2021/06/24 05:05:31;;;;;;;6.15;5.75;;;;;;;14.79;71.79;101046.94;6135053;23;20002;-78
2021/06/24 05:07:57;;;;;;;7.40;6.93;;;;;;;14.82;71.42;101056.53;6135364;23;20010;-78
2021/06/24 05:10:23;;;;;;;8.23;7.55;;;;;;;14.82;71.24;101054.63;6109662;23;20006;-79
2021/06/24 05:12:49;;;;;;;7.65;7.18;;;;;;;14.83;71.20;101053.53;6137223;23;20013;-78
2021/06/24 05:15:15;;;;;;;7.85;7.25;;;;;;;14.88;71.32;101054.59;6135199;23;20002;-78
2021/06/24 05:17:42;;;;;;;6.78;6.28;;;;;;;14.96;71.18;101054.03;6113618;23;20013;-79
2021/06/24 05:20:11;;;;;;;7.22;6.80;;;;;;;14.98;71.44;101046.31;6135830;23;20010;-79
2021/06/24 05:22:37;;;;;;;7.95;7.47;;;;;;;15.02;71.80;101050.16;6111964;23;20029;-79
2021/06/24 05:25:04;;;;;;;8.35;7.65;;;;;;;14.97;71.60;101037.22;6137232;23;20401;-78
2021/06/24 05:27:29;;;;;;;8.90;7.78;;;;;;;14.99;71.61;101042.44;6115076;23;20105;-80
2021/06/24 05:29:55;;;;;;;11.80;7.68;;;;;;;15.01;71.36;101051.28;6093794;23;20010;-79
2021/06/24 05:32:21;;;;;;;7.35;6.85;;;;;;;14.99;71.77;101035.00;6117040;23;20017;-80
2021/06/24 05:34:46;;;;;;;8.07;7.43;;;;;;;15.05;71.97;101041.31;6068613;23;20157;-79
2021/06/24 05:37:12;;;;;;;8.60;7.85;;;;;;;15.06;71.63;101045.72;6090124;23;20416;-79
2021/06/24 05:39:37;;;;;;;7.88;7.28;;;;;;;14.99;71.93;101028.69;6091897;23;20033;-78
2021/06/24 05:42:03;;;;;;;8.00;7.50;;;;;;;15.10;71.50;101045.97;6108239;23;20097;-76
2021/06/24 05:44:51;;;;;;;7.63;7.03;;;;;;;15.20;72.08;101043.22;6088172;23;20020;-73
2021/06/24 05:53:13;;;;;;;6.18;5.88;;;;;;;15.23;71.91;101028.88;6188433;23;20054;-74
2021/06/24 05:55:58;;;;;;;;;;;;;;;;;;;;;
2021/06/24 06:01:48;;;;;;;6.10;5.70;;;;;;;15.65;71.55;101055.09;6225079;23;20019;-75
2021/06/24 06:07:40;;;;;;;;;;;;;;;;;;;;;
2021/06/24 06:13:43;;;;;;;5.68;5.38;;;;;;;15.95;70.63;101017.41;6159537;23;20337;-76
2021/06/24 06:16:25;;;;;;;5.18;4.90;;;;;;;16.18;70.79;101026.06;6160892;23;20537;-77
2021/06/24 06:22:14;;;;;;;5.37;5.00;;;;;;;16.48;69.70;101036.00;6223328;23;20068;-75
2021/06/24 06:25:02;;;;;;;6.30;5.90;;;;;;;16.67;69.33;101060.09;6218686;23;20031;-77
2021/06/24 06:27:28;;;;;;;6.47;6.18;;;;;;;16.52;69.64;101026.00;6201293;23;20078;-77
2021/06/24 06:30:29;;;;;;;;;;;;;;;;;;;;;
2021/06/24 06:39:52;;;;;;;7.72;7.22;;;;;;;16.77;69.06;101048.94;6176475;23;20008;-76
2021/06/24 06:42:31;;;;;;;4.88;4.57;;;;;;;16.79;68.77;101038.44;6223660;23;20008;-77
2021/06/24 06:44:57;;;;;;;5.25;5.05;;;;;;;16.80;69.06;101051.13;6225414;23;20035;-79
2021/06/24 06:47:22;;;;;;;7.57;5.05;;;;;;;16.88;68.81;101047.75;6224878;23;20008;-77
2021/06/24 06:49:48;;;;;;;7.13;6.53;;;;;;;16.92;68.78;101051.59;6225509;23;20531;-77
2021/06/24 06:52:16;;;;;;;6.63;5.97;;;;;;;16.78;68.79;101027.69;6199730;23;20726;-78
2021/06/24 06:55:03;;;;;;;;;;;;;;;;;;;;;
2021/06/24 06:57:52;;;;;;;6.43;5.80;;;;;;;16.99;69.08;101042.13;6220683;23;20260;-77
2021/06/24 07:01:17;;;;;;;;;;;;;;;;;;;;;
2021/06/24 07:07:05;;;;;;;5.95;5.65;;;;;;;17.21;67.96;101031.34;6186251;23;20032;-78
2021/06/24 07:10:00;;;;;;;;;;;;;;;;;;;;;
2021/06/24 07:12:32;;;;;;;6.00;5.63;;;;;;;17.70;67.45;101039.53;6212637;23;20028;-76
2021/06/24 07:14:57;;;;;;;6.78;6.05;;;;;;;17.93;67.02;101055.25;6225049;23;20011;-76
2021/06/24 07:17:42;;;;;;;6.38;5.80;;;;;;;17.83;66.33;101024.94;6221520;23;20001;-75
2021/06/24 07:20:56;;;;;;;6.37;5.93;;;;;;;18.17;65.86;101062.63;6198957;23;20009;-76
2021/06/24 07:24:21;;;;;;;8.07;6.45;;;;;;;18.12;65.82;101038.63;6122151;23;20064;-76
2021/06/24 07:27:10;;;;;;;4.95;4.55;;;;;;;18.28;65.54;101054.97;6032718;23;20363;-75
2021/06/24 07:30:09;;;;;;;5.28;4.97;;;;;;;18.39;64.98;101066.69;6093717;23;20433;-76
2021/06/24 07:32:55;;;;;;;6.32;5.47;;;;;;;18.44;64.75;101061.06;6124154;23;20021;-76
2021/06/24 07:35:20;;;;;;;;;;;;;;;18.70;64.55;101063.38;6128510;23;20014;-79
2021/06/24 07:37:46;;;;;;;;;;;;;;;18.83;64.41;101068.09;6135258;23;19909;-78
2021/06/24 07:40:13;;;;;;;7.57;5.20;;;;;;;18.70;63.84;101063.38;6109045;23;20311;-78
2021/06/24 07:42:40;;;;;;;5.45;5.05;;;;;;;18.81;63.90;101059.28;6107046;23;20006;-78
2021/06/24 07:45:31;;;;;;;;;;;;;;;;;;;;;
2021/06/24 07:51:38;;;;;;;;;;;;;;;;;;;;;
2021/06/24 07:54:06;;;;;;;4.75;4.45;;;;;;;19.19;62.31;101056.34;6170470;23;20050;-78
2021/06/24 07:56:32;;;;;;;5.57;5.18;;;;;;;19.30;61.73;101055.00;6225156;23;20092;-79
2021/06/24 07:59:03;;;;;;;5.32;4.93;;;;;;;19.51;61.93;101060.94;6200596;23;20380;-78
2021/06/24 08:02:13;;;;;;;;;;;;;;;;;;;;;
2021/06/24 08:08:21;;;;;;;;;;;;;;;;;;;;;
2021/06/24 08:10:56;;;;;;;5.55;5.18;;;;;;;19.76;60.38;101060.69;6192340;23;20035;-77
2021/06/24 08:13:50;;;;;;;5.30;4.90;;;;;;;19.83;59.95;101058.28;6223288;23;20056;-76
2021/06/24 08:16:16;;;;;;;5.22;4.93;;;;;;;19.81;59.85;101064.16;6223001;23;20021;-75
2021/06/24 08:18:42;;;;;;;5.15;4.65;;;;;;;19.82;60.25;101048.34;6196239;23;20004;-77
2021/06/24 08:21:08;;;;;;;3.67;3.55;;;;;;;20.02;59.92;101053.41;6198368;23;20005;-76
2021/06/24 08:23:35;;;;;;;4.60;4.22;;;;;;;20.21;59.19;101061.53;6172262;23;20024;-77
2021/06/24 08:26:08;;;;;;;4.65;4.35;;;;;;;20.30;58.45;101063.56;6197415;23;20004;-77
2021/06/24 08:28:34;;;;;;;2.78;2.67;;;;;;;20.43;59.23;101062.66;6172319;23;20008;-76
2021/06/24 08:31:02;;;;;;;3.10;2.83;;;;;;;20.68;58.88;101058.41;6195987;23;20331;-77
2021/06/24 08:33:28;;;;;;;3.33;3.13;;;;;;;20.94;57.84;101068.84;6168743;23;20339;-78
2021/06/24 08:39:18;;;;;;;2.10;2.00;;;;;;;21.40;56.88;101044.44;6219199;23;20096;-78
2021/06/24 08:41:51;;;;;;;2.70;2.60;;;;;;;21.80;56.12;101069.41;6220739;23;20004;-77
2021/06/24 08:48:16;;;;;;;2.15;2.05;;;;;;;22.24;54.07;101041.50;6133452;23;20780;-78
2021/06/24 08:50:47;;;;;;;2.03;1.92;;;;;;;22.39;53.46;101049.38;6069200;23;20027;-77
2021/06/24 08:53:16;;;;;;;3.38;2.80;;;;;;;22.66;53.08;101062.09;6105879;23;20368;-77
2021/06/24 08:55:45;;;;;;;3.70;3.53;;;;;;;22.70;51.48;101055.88;6133707;23;20109;-75
2021/06/24 08:58:13;;;;;;;4.53;4.07;;;;;;;22.71;51.09;101038.81;6129885;23;20013;-77
2021/06/24 09:01:18;;;;;;;3.28;3.10;;;;;;;22.98;51.07;101036.72;6170078;23;20001;-77
2021/06/24 09:03:59;;;;;;;3.03;2.83;;;;;;;23.24;50.29;101041.38;6172934;23;20032;-78
2021/06/24 09:06:48;;;;;;;;;;;;;;;;;;;;;
2021/06/24 09:09:40;;;;;;;2.47;2.38;;;;;;;23.90;49.61;101046.31;6170768;23;20037;-76
2021/06/24 09:12:24;;;;;;;;;;;;;;;;;;;;;
2021/06/24 09:15:09;;;;;;;2.30;2.20;;;;;;;23.95;47.80;101043.34;6171917;23;20041;-76
2021/06/24 09:17:43;;;;;;;3.47;3.28;;;;;;;23.81;47.50;101043.56;6170025;23;20009;-77
2021/06/24 09:20:29;;;;;;;3.33;3.13;;;;;;;23.69;48.05;101054.69;6192275;23;20008;-78
2021/06/24 09:23:23;;;;;;;4.57;4.20;;;;;;;23.46;47.09;101055.00;6191838;23;20009;-77
2021/06/24 09:26:17;;;;;;;4.03;3.83;;;;;;;22.97;47.39;101035.09;6193052;23;20005;-77
2021/06/24 09:28:55;;;;;;;1.73;1.70;;;;;;;23.06;48.54;101063.75;6168501;23;20005;-77
2021/06/24 09:31:26;;;;;;;1.58;1.58;;;;;;;23.12;48.67;101070.00;6195510;23;20084;-77
2021/06/24 09:34:07;;;;;;;;;;;;;;;;;;;;;
2021/06/24 09:37:18;;;;;;;2.88;2.67;;;;;;;23.52;48.13;101064.81;6192764;23;20442;-77
2021/06/24 09:40:11;;;;;;;4.03;3.83;;;;;;;23.40;47.40;101033.22;6192608;23;20009;-78
2021/06/24 09:42:37;;;;;;;4.10;3.22;;;;;;;23.60;47.21;101051.16;6169965;23;20005;-79
2021/06/24 09:45:42;;;;;;;3.28;3.17;;;;;;;23.79;47.13;101051.47;6146315;23;20009;-79
2021/06/24 09:48:40;;;;;;;3.83;3.53;;;;;;;24.10;46.06;101055.03;6151597;23;20009;-78
2021/06/24 09:51:30;;;;;;;3.10;3.00;;;;;;;24.42;45.79;101050.59;6196745;23;19998;-79
2021/06/24 09:54:15;;;;;;;2.40;2.30;;;;;;;24.75;45.98;101052.56;6180773;23;20443;-78
2021/06/24 09:57:01;;;;;;;4.28;4.07;;;;;;;25.11;44.55;101027.75;6199263;23;20035;-80
2021/06/24 09:59:52;;;;;;;4.03;3.80;;;;;;;25.41;42.76;101054.31;6226032;23;20435;-79
2021/06/24 10:02:55;;;;;;;4.40;4.20;;;;;;;25.37;42.94;101039.41;6204234;23;20007;-80
2021/06/24 10:05:27;;;;;;;3.60;3.40;;;;;;;25.75;42.58;101049.34;6227245;23;20008;-80
2021/06/24 10:08:22;;;;;;;3.08;2.88;;;;;;;26.19;42.29;101047.81;6228912;23;20411;-81
2021/06/24 10:10:51;;;;;;;2.40;2.30;;;;;;;26.33;42.88;101034.19;6182899;23;20060;-81
2021/06/24 10:13:29;;;;;;;3.80;3.60;;;;;;;26.62;41.04;101057.34;6200578;23;20032;-78
2021/06/24 10:16:26;;;;;;;;;;;;;;;;;;;;;
2021/06/24 10:19:01;;;;;;;3.67;2.03;;;;;;;26.42;41.27;101040.44;6226692;23;20016;-81
2021/06/24 10:21:36;;;;;;;2.83;2.72;;;;;;;26.25;39.92;101033.16;6229440;23;20031;-81
2021/06/24 10:24:08;;;;;;;2.97;2.85;;;;;;;26.04;40.42;101055.00;6225555;23;20005;-79
2021/06/24 10:26:37;;;;;;;2.78;2.67;;;;;;;25.66;40.14;101050.66;6203467;23;20035;-79
2021/06/24 10:29:18;;;;;;;3.15;3.05;;;;;;;25.26;40.85;101050.22;6208189;23;20019;-79
2021/06/24 10:31:50;;;;;;;3.55;3.38;;;;;;;25.04;41.81;101056.28;6209061;23;20000;-81
2021/06/24 10:35:03;;;;;;;3.95;3.75;;;;;;;24.78;42.02;101057.47;6204031;23;20004;-80
2021/06/24 10:37:52;;;;;;;3.60;3.40;;;;;;;24.46;42.47;101029.19;6189827;23;20008;-79
2021/06/24 10:40:32;;;;;;;3.05;2.95;;;;;;;24.53;42.93;101040.63;6228304;23;20028;-80
2021/06/24 10:43:05;;;;;;;3.42;3.22;;;;;;;24.72;42.74;101050.44;6226604;23;20005;-79
2021/06/24 10:45:40;;;;;;;2.72;2.63;;;;;;;24.82;43.11;101030.41;6227653;23;20019;-78
2021/06/24 10:48:40;;;;;;;4.82;4.63;;;;;;;25.13;41.37;101028.19;6202311;23;19997;-79
2021/06/24 10:51:59;;;;;;;;;;;;;;;;;;;;;
2021/06/24 10:54:55;;;;;;;2.95;2.85;;;;;;;25.37;41.43;101033.00;6205628;23;20063;-78
2021/06/24 10:57:38;;;;;;;2.90;2.60;;;;;;;25.46;41.88;101018.88;6199110;23;20092;-79
2021/06/24 11:00:33;;;;;;;1.67;1.58;;;;;;;26.08;41.07;101036.28;6197652;23;20001;-81
2021/06/24 11:03:00;;;;;;;2.40;2.30;;;;;;;26.15;40.52;101019.66;6172600;23;20005;-80
2021/06/24 11:06:18;;;;;;;;;;;;;;;;;;;;;
2021/06/24 11:08:48;;;;;;;2.40;2.30;;;;;;;26.48;39.73;101008.13;6197351;23;20055;-81
2021/06/24 11:15:04;;;;;;;3.53;3.33;;;;;;;25.81;39.89;101005.09;6105188;23;20030;-79
2021/06/24 11:17:49;;;;;;;3.42;3.28;;;;;;;25.50;39.95;101015.00;6197780;23;20011;-78
2021/06/24 11:20:18;;;;;;;2.70;2.60;;;;;;;25.08;41.29;101010.47;6195650;23;20001;-79
2021/06/24 11:22:48;;;;;;;4.70;4.15;;;;;;;24.65;41.78;101005.47;6191809;23;20001;-78
2021/06/24 11:25:16;;;;;;;3.90;3.65;;;;;;;24.32;42.87;101011.91;6168592;23;20005;-78
2021/06/24 11:27:42;;;;;;;4.05;3.85;;;;;;;24.02;43.76;101004.50;6171371;23;20004;-79
2021/06/24 11:30:09;;;;;;;4.03;3.83;;;;;;;23.80;44.25;101002.88;6142472;23;20016;-79
2021/06/24 11:32:45;;;;;;;4.82;4.53;;;;;;;23.60;44.58;100993.34;6140682;23;20009;-80
2021/06/24 11:35:31;;;;;;;4.18;3.92;;;;;;;23.52;45.07;101003.44;6194606;23;20005;-78
2021/06/24 11:38:01;;;;;;;4.50;4.20;;;;;;;23.38;45.08;100988.09;6168647;23;20008;-81
2021/06/24 11:40:27;;;;;;;4.20;4.00;;;;;;;23.56;45.46;100994.38;6143385;23;20009;-81
2021/06/24 11:42:58;;;;;;;4.20;3.40;;;;;;;24.02;45.58;100998.06;6146591;23;20020;-80
2021/06/24 11:45:25;;;;;;;3.33;3.13;;;;;;;24.50;45.02;100996.59;6122137;23;20021;-79
2021/06/24 11:47:55;;;;;;;3.47;3.28;;;;;;;25.35;45.04;101002.56;6147452;23;20017;-79
2021/06/24 12:04:19;;;;;;;1.40;1.40;;;;;;;31.49;33.18;100999.13;6227976;23;20347;-80
2021/06/24 12:06:52;;;;;;;1.73;1.63;;;;;;;31.36;32.68;101006.31;6226617;23;20013;-78
2021/06/24 12:09:21;;;;;;;1.73;1.73;;;;;;;31.20;32.68;100991.72;6227361;23;20008;-81
2021/06/24 12:11:49;;;;;;;1.90;1.80;;;;;;;30.89;31.53;101005.22;6204024;23;20031;-80
2021/06/24 12:14:18;;;;;;;1.50;1.50;;;;;;;30.51;33.01;101005.28;6229318;23;20013;-80
2021/06/24 12:17:14;;;;;;;0.90;0.90;;;;;;;30.49;33.51;101006.88;6200175;23;20024;-79
2021/06/24 12:19:56;;;;;;;1.70;1.60;;;;;;;30.29;33.08;101001.44;6216680;23;20008;-79
2021/06/24 12:22:34;;;;;;;1.65;1.58;;;;;;;30.10;33.05;101000.44;6221816;23;20374;-80
2021/06/24 12:25:02;;;;;;;1.63;1.52;;;;;;;29.94;32.58;100980.13;6215512;23;20086;-78
2021/06/24 12:27:29;;;;;;;1.75;1.67;;;;;;;29.62;32.55;100997.44;6216863;23;20005;-77
2021/06/24 12:30:00;;;;;;;2.20;2.10;;;;;;;29.07;32.71;100995.88;6213666;23;20139;-76
2021/06/24 12:32:26;;;;;;;4.75;2.17;;;;;;;28.36;33.23;100990.66;6215779;23;20009;-76
2021/06/24 12:34:57;;;;;;;2.25;2.15;;;;;;;27.80;33.93;100979.91;6187171;23;20008;-74
2021/06/24 12:37:31;;;;;;;2.25;1.92;;;;;;;27.26;34.87;100985.22;6213214;23;20000;-76
2021/06/24 12:39:57;;;;;;;2.33;2.05;;;;;;;26.92;35.66;100975.59;6209071;23;20319;-78
2021/06/24 12:42:23;;;;;;;1.90;1.80;;;;;;;26.76;36.96;100975.59;6213761;23;20015;-79
2021/06/24 12:44:49;;;;;;;1.35;1.35;;;;;;;26.69;36.77;100979.03;6190397;23;20423;-74
2021/06/24 12:47:34;;;;;;;1.20;1.20;;;;;;;26.61;36.89;100980.84;6190384;23;20081;-76
2021/06/24 12:50:33;;;;;;;2.25;2.13;;;;;;;26.36;36.14;100982.19;6213445;23;20383;-77
2021/06/24 12:53:01;;;;;;;1.70;1.60;;;;;;;26.03;37.34;100974.91;6204054;23;20012;-73
2021/06/24 12:55:41;;;;;;;1.50;1.40;;;;;;;26.07;37.59;100973.03;6217859;23;20023;-72
2021/06/24 12:58:21;;;;;;;2.22;1.70;;;;;;;26.03;37.75;100981.31;6218541;23;20332;-74
2021/06/24 13:00:56;;;;;;;1.58;1.55;;;;;;;26.22;37.69;100977.03;6213955;23;20005;-74
2021/06/24 13:03:51;;;;;;;1.60;1.60;;;;;;;26.55;37.34;100978.69;6214518;23;20442;-74
2021/06/24 13:06:23;;;;;;;1.70;1.67;;;;;;;26.48;36.65;100980.09;6213725;23;20000;-74
2021/06/24 13:09:05;;;;;;;2.00;1.90;;;;;;;26.30;37.42;100971.25;6207374;23;20011;-75
2021/06/24 13:11:34;;;;;;;9.73;1.92;;;;;;;26.13;37.09;100975.19;6215512;23;20008;-75
2021/06/24 13:14:06;;;;;;;1.48;1.40;;;;;;;25.82;38.02;100978.72;6191534;23;20056;-73
2021/06/24 13:16:57;;;;;;;1.75;1.65;;;;;;;25.50;38.33;100973.00;6218480;23;20043;-75
2021/06/24 13:20:01;;;;;;;1.75;1.65;;;;;;;25.24;39.44;100974.19;6194855;23;20000;-74
2021/06/24 13:22:37;;;;;;;2.10;2.00;;;;;;;25.15;40.21;100979.13;6214984;23;20324;-75
2021/06/24 13:25:21;;;;;;;1.30;1.30;;;;;;;25.23;40.54;100966.16;6187573;23;20009;-75
2021/06/24 13:28:23;;;;;;;1.85;1.65;;;;;;;25.42;40.24;100973.94;6144481;23;20379;-74
2021/06/24 13:30:51;;;;;;;1.50;1.50;;;;;;;25.64;39.92;100963.38;6209985;23;20020;-74
2021/06/24 13:33:18;;;;;;;1.92;1.83;;;;;;;25.93;38.91;100968.63;6163187;23;20024;-73